Terminal Aerodrome Forecast
Issued by NWS

Home | Current Version | Previous Version | Graphics & Text | Print | Product List | Glossary On
Versions: 1 2 3 4 5 6 7 8 9 10 11 12 13 14 15 16 17
508
FTUS43 KABR 201739
TAFATY
TAF
KATY 201739Z 2018/2118 03010KT P6SM VCSH BKN120
     FM202200 03009KT P6SM SCT200
     FM211400 10005KT P6SM BKN200=

USA.gov is the U.S. government's official web portal to all federal, state and local government web resources and services.